Weather reports worldwide

Advertisment
Inverness/Dalcross, United Kingdom (3059): temperature & dewpoint: 04.07.2020 04:00:00 - 10.07.2020 04:00:00 (BST)Inverness/Dalcross, United Kingdom (3059): wind speed: 04.07.2020 04:00:00 - 10.07.2020 04:00:00 (BST)Inverness/Dalcross, United Kingdom (3059): wind direction: 04.07.2020 04:00:00 - 10.07.2020 04:00:00 (BST)Inverness/Dalcross, United Kingdom (3059): visibility: 04.07.2020 04:00:00 - 10.07.2020 04:00:00 (BST)
Date & Time tt [°C] td [°C] ff [km/h] ff [kn] dd vv [km]
10.07.2020 04:00:00 9,0 9,0 8 4 SSW 10
10.07.2020 03:00:00 9,0 8,0 4 2 SSW 10
10.07.2020 02:00:00 9,0 8,0 5 3 SSW 10
10.07.2020 01:00:00 10,0 10,0 4 2 SSW 10
10.07.2020 00:00:00 10,0 10,0 0 0 N 10
09.07.2020 23:00:00 11,0 10,0 0 0 N 10
09.07.2020 22:00:00 11,0 10,0 5 3 N 10
09.07.2020 21:00:00 12,0 9,0 4 2 - 10
09.07.2020 20:00:00 13,0 9,0 13 7 NNE 10
09.07.2020 19:00:00 14,0 9,0 13 7 NNE 10
09.07.2020 18:00:00 15,0 9,0 15 8 NNE 10
09.07.2020 17:00:00 15,0 9,0 16 9 NE 10
09.07.2020 16:00:00 16,0 8,0 9 5 NE 10
09.07.2020 15:00:00 17,0 8,0 11 6 N 10
09.07.2020 14:00:00 15,0 8,0 5 3 - 10
09.07.2020 13:00:00 16,0 9,0 8 4 N 10
09.07.2020 12:00:00 16,0 9,0 8 4 E 10
09.07.2020 11:00:00 14,0 9,0 4 2 - 10
09.07.2020 10:00:00 13,0 9,0 4 2 - 10
09.07.2020 09:00:00 12,0 9,0 9 5 SW 10
09.07.2020 08:00:00 11,0 9,0 9 5 SW 10
09.07.2020 07:00:00 11,0 9,0 8 4 SW 10
09.07.2020 06:00:00 - - - - - -
09.07.2020 05:00:00 10,0 9,0 5 3 SSW 10
09.07.2020 04:00:00 - - - - - -
09.07.2020 03:00:00 10,0 9,0 4 2 SW 10
09.07.2020 02:00:00 11,0 10,0 4 2 WSW 10
09.07.2020 01:00:00 11,0 10,0 8 4 SW 10
09.07.2020 00:00:00 12,0 11,0 11 6 N 10
08.07.2020 23:00:00 12,0 10,0 15 8 NNW 10
08.07.2020 22:00:00 13,0 11,0 11 6 NNW 10
08.07.2020 21:00:00 13,0 10,0 15 8 NNE 10
08.07.2020 20:00:00 13,0 7,0 15 8 NNE 10
08.07.2020 19:00:00 14,0 7,0 18 10 NNE 10
08.07.2020 18:00:00 15,0 7,0 18 10 NNE 10
08.07.2020 17:00:00 16,0 7,0 16 9 NNE 10
08.07.2020 16:00:00 15,0 6,0 13 7 NNE 10
08.07.2020 15:00:00 16,0 7,0 13 7 NNE 10
08.07.2020 14:00:00 16,0 7,0 13 7 NE 10
08.07.2020 13:00:00 15,0 7,0 5 3 - 10
08.07.2020 12:00:00 14,0 7,0 5 3 - 10
08.07.2020 11:00:00 14,0 7,0 2 1 - 10
08.07.2020 10:00:00 13,0 6,0 2 1 - 10
08.07.2020 09:00:00 13,0 6,0 2 1 - 10
08.07.2020 08:00:00 11,0 7,0 4 2 - 10
08.07.2020 07:00:00 10,0 7,0 4 2 NE 10
08.07.2020 06:00:00 9,0 7,0 0 0 N 10
08.07.2020 05:00:00 8,0 7,0 2 1 SSE 10
08.07.2020 04:00:00 7,0 6,0 0 0 N 10
08.07.2020 03:00:00 9,0 7,0 5 3 NNE 10
08.07.2020 02:00:00 10,0 8,0 2 1 NNE 10
08.07.2020 01:00:00 10,0 8,0 5 3 NE 10
08.07.2020 00:00:00 10,0 8,0 9 5 NNE 10
07.07.2020 23:00:00 10,0 8,0 5 3 ENE 10
07.07.2020 22:00:00 11,0 8,0 8 4 ENE 10
07.07.2020 21:00:00 12,0 8,0 13 7 ENE 10
07.07.2020 20:00:00 13,0 8,0 15 8 ENE 10
07.07.2020 19:00:00 14,0 8,0 11 6 NNE 10
07.07.2020 18:00:00 14,0 9,0 9 5 NE 10
07.07.2020 17:00:00 15,0 9,0 2 1 - 10
07.07.2020 16:00:00 14,0 9,0 5 3 ESE 10
07.07.2020 15:00:00 13,0 10,0 5 3 - 10
07.07.2020 14:00:00 13,0 10,0 4 2 - 10
07.07.2020 13:00:00 13,0 10,0 4 2 - 10
07.07.2020 12:00:00 11,0 9,0 2 1 - 10
07.07.2020 11:00:00 14,0 9,0 15 8 WSW 10
07.07.2020 10:00:00 13,0 9,0 13 7 WSW 10
07.07.2020 09:00:00 13,0 8,0 16 9 SW 10
07.07.2020 08:00:00 12,0 8,0 18 10 SW 10
07.07.2020 07:00:00 11,0 7,0 13 7 SSW 10
07.07.2020 06:00:00 10,0 7,0 4 2 SSW 10
07.07.2020 05:00:00 9,0 6,0 11 6 SSW 10
07.07.2020 04:00:00 10,0 7,0 18 10 WSW 10
07.07.2020 03:00:00 11,0 7,0 24 13 WSW 10
07.07.2020 02:00:00 11,0 8,0 16 9 W 10
07.07.2020 01:00:00 11,0 7,0 13 7 SW 10
07.07.2020 00:00:00 11,0 8,0 24 13 WSW 10
06.07.2020 23:00:00 11,0 9,0 22 12 WSW 10
06.07.2020 22:00:00 12,0 9,0 26 14 WSW 10
06.07.2020 21:00:00 12,0 8,0 28 15 WSW 10
06.07.2020 20:00:00 13,0 7,0 29 16 WSW 10
06.07.2020 19:00:00 15,0 6,0 28 15 WSW 10
06.07.2020 18:00:00 15,0 8,0 28 15 W 10
06.07.2020 17:00:00 13,0 7,0 34 18 W 10
06.07.2020 16:00:00 15,0 7,0 29 16 W 10
06.07.2020 15:00:00 15,0 7,0 26 14 W 10
06.07.2020 14:00:00 14,0 7,0 26 14 WSW 10
06.07.2020 13:00:00 15,0 8,0 22 12 WSW 10
06.07.2020 12:00:00 15,0 8,0 16 9 NW 10
06.07.2020 11:00:00 14,0 7,0 18 10 W 10
06.07.2020 10:00:00 13,0 7,0 22 12 NW 10
06.07.2020 09:00:00 13,0 7,0 21 11 NW 10
06.07.2020 08:00:00 12,0 7,0 28 15 WNW 10
06.07.2020 07:00:00 11,0 7,0 21 11 WNW 10
06.07.2020 06:00:00 11,0 7,0 15 8 WNW 10
06.07.2020 05:00:00 12,0 8,0 21 11 WNW 10
06.07.2020 04:00:00 11,0 8,0 15 8 W 10
06.07.2020 03:00:00 11,0 8,0 8 4 WSW 10
06.07.2020 02:00:00 11,0 8,0 21 11 W 10
06.07.2020 01:00:00 11,0 8,0 22 12 WSW 10
06.07.2020 00:00:00 11,0 8,0 16 9 SW 10
05.07.2020 23:00:00 11,0 9,0 15 8 WSW 10
05.07.2020 22:00:00 11,0 9,0 15 8 WSW 10
05.07.2020 21:00:00 12,0 9,0 15 8 WSW 10
05.07.2020 20:00:00 11,0 8,0 22 12 W 10
05.07.2020 19:00:00 13,0 8,0 28 15 W 10
05.07.2020 18:00:00 15,0 9,0 24 13 SW 10
05.07.2020 17:00:00 14,0 8,0 29 16 SW 10
05.07.2020 16:00:00 15,0 9,0 21 11 W 10
05.07.2020 15:00:00 15,0 8,0 28 15 WSW 10
05.07.2020 14:00:00 13,0 9,0 26 14 SW 10
05.07.2020 13:00:00 15,0 9,0 22 12 SW 10
05.07.2020 12:00:00 13,0 9,0 29 16 SW 10
05.07.2020 11:00:00 14,0 9,0 28 15 WSW 10
05.07.2020 10:00:00 12,0 9,0 21 11 WSW 10
05.07.2020 09:00:00 12,0 9,0 22 12 SW 10
05.07.2020 08:00:00 11,0 9,0 5 3 WSW 10
05.07.2020 07:00:00 11,0 9,0 15 8 WSW 10
05.07.2020 06:00:00 11,0 9,0 13 7 SW 10
05.07.2020 05:00:00 11,0 10,0 9 5 WSW 10
05.07.2020 04:00:00 11,0 10,0 9 5 NNW 10
05.07.2020 03:00:00 11,0 10,0 2 1 NE 7
05.07.2020 02:00:00 11,0 10,0 13 7 NE 8
05.07.2020 01:00:00 11,0 11,0 0 0 N 9
05.07.2020 00:00:00 11,0 10,0 0 0 N 7
04.07.2020 23:00:00 11,0 10,0 4 2 ESE 4,2
04.07.2020 22:00:00 12,0 10,0 4 2 SSW 4,4
04.07.2020 21:00:00 13,0 10,0 4 2 ESE 10
04.07.2020 20:00:00 14,0 11,0 4 2 S 10
04.07.2020 19:00:00 15,0 9,0 11 6 SW 10
04.07.2020 18:00:00 15,0 11,0 13 7 SSW 10
04.07.2020 17:00:00 14,0 11,0 9 5 SSW 10
04.07.2020 16:00:00 12,0 11,0 15 8 W 10
04.07.2020 15:00:00 14,0 11,0 16 9 SW 10
04.07.2020 14:00:00 15,0 10,0 21 11 SW 10
04.07.2020 13:00:00 14,0 11,0 15 8 SSW 10
04.07.2020 12:00:00 13,0 11,0 11 6 SW 10
04.07.2020 11:00:00 12,0 11,0 4 2 SW 10
04.07.2020 10:00:00 12,0 10,0 13 7 SW 10
04.07.2020 09:00:00 13,0 9,0 13 7 SW 10
04.07.2020 08:00:00 13,0 9,0 4 2 - 10
04.07.2020 07:00:00 12,0 9,0 5 3 S 10
04.07.2020 06:00:00 11,0 9,0 8 4 SW 10
04.07.2020 05:00:00 10,0 8,0 5 3 SSW 10
04.07.2020 04:00:00 10,0 8,0 4 2 WSW 10

tt = temperature
td = dewpoint
ff = wind speed
dd = wind direction
vv = visibility

Next stations